sensor_id;sensor_type;location;lat;lon;timestamp;temperature;humidity
3644;DHT22;1838;50.742;7.158;2022-12-19T00:03:48;1.50;99.90
3644;DHT22;1838;50.742;7.158;2022-12-19T00:06:14;1.60;99.90
3644;DHT22;1838;50.742;7.158;2022-12-19T00:08:42;1.60;99.90
3644;DHT22;1838;50.742;7.158;2022-12-19T00:11:09;1.60;99.90
3644;DHT22;1838;50.742;7.158;2022-12-19T00:13:35;1.70;99.90
3644;DHT22;1838;50.742;7.158;2022-12-19T00:16:02;1.70;99.90
3644;DHT22;1838;50.742;7.158;2022-12-19T00:18:29;1.70;99.90
3644;DHT22;1838;50.742;7.158;2022-12-19T00:21:00;1.80;99.90
3644;DHT22;1838;50.742;7.158;2022-12-19T00:23:28;1.80;99.90
3644;DHT22;1838;50.742;7.158;2022-12-19T00:25:54;1.80;99.90
3644;DHT22;1838;50.742;7.158;2022-12-19T00:28:20;1.80;99.90
3644;DHT22;1838;50.742;7.158;2022-12-19T00:30:45;1.80;99.90
3644;DHT22;1838;50.742;7.158;2022-12-19T00:33:11;1.80;99.90
3644;DHT22;1838;50.742;7.158;2022-12-19T00:35:36;1.70;99.90
3644;DHT22;1838;50.742;7.158;2022-12-19T00:38:02;1.70;99.90
3644;DHT22;1838;50.742;7.158;2022-12-19T00:40:28;1.60;99.90
3644;DHT22;1838;50.742;7.158;2022-12-19T00:42:54;1.50;99.90
3644;DHT22;1838;50.742;7.158;2022-12-19T00:45:20;1.50;99.90
3644;DHT22;1838;50.742;7.158;2022-12-19T00:47:46;1.60;99.90
3644;DHT22;1838;50.742;7.158;2022-12-19T00:50:11;1.60;99.90
3644;DHT22;1838;50.742;7.158;2022-12-19T00:52:37;1.50;99.90
3644;DHT22;1838;50.742;7.158;2022-12-19T00:55:02;1.50;99.90
3644;DHT22;1838;50.742;7.158;2022-12-19T00:57:28;1.60;99.90
3644;DHT22;1838;50.742;7.158;2022-12-19T00:59:53;1.60;99.90
3644;DHT22;1838;50.742;7.158;2022-12-19T01:02:19;1.60;99.90
3644;DHT22;1838;50.742;7.158;2022-12-19T01:04:44;1.70;99.90
3644;DHT22;1838;50.742;7.158;2022-12-19T01:07:10;1.70;99.90
3644;DHT22;1838;50.742;7.158;2022-12-19T01:09:36;1.80;99.90
3644;DHT22;1838;50.742;7.158;2022-12-19T01:12:03;1.80;99.90
3644;DHT22;1838;50.742;7.158;2022-12-19T01:14:47;1.90;99.90
3644;DHT22;1838;50.742;7.158;2022-12-19T01:17:13;1.90;99.90
3644;DHT22;1838;50.742;7.158;2022-12-19T01:19:38;2.00;99.90
3644;DHT22;1838;50.742;7.158;2022-12-19T01:22:04;2.10;99.90
3644;DHT22;1838;50.742;7.158;2022-12-19T01:24:30;2.10;99.90
3644;DHT22;1838;50.742;7.158;2022-12-19T01:26:55;2.10;99.90
3644;DHT22;1838;50.742;7.158;2022-12-19T01:29:20;2.20;99.90
3644;DHT22;1838;50.742;7.158;2022-12-19T01:31:46;2.20;99.90
3644;DHT22;1838;50.742;7.158;2022-12-19T01:34:12;2.20;99.90
3644;DHT22;1838;50.742;7.158;2022-12-19T01:36:38;2.30;99.90
3644;DHT22;1838;50.742;7.158;2022-12-19T01:39:03;2.30;99.90
3644;DHT22;1838;50.742;7.158;2022-12-19T01:41:28;2.40;99.90
3644;DHT22;1838;50.742;7.158;2022-12-19T01:44:06;2.40;99.90
3644;DHT22;1838;50.742;7.158;2022-12-19T01:46:41;2.50;99.90
3644;DHT22;1838;50.742;7.158;2022-12-19T01:51:46;2.60;99.90
3644;DHT22;1838;50.742;7.158;2022-12-19T01:54:15;2.50;99.90
3644;DHT22;1838;50.742;7.158;2022-12-19T01:56:46;2.40;99.90
3644;DHT22;1838;50.742;7.158;2022-12-19T01:59:16;2.40;99.90
3644;DHT22;1838;50.742;7.158;2022-12-19T02:01:43;2.40;99.90
3644;DHT22;1838;50.742;7.158;2022-12-19T02:04:09;2.40;99.90
3644;DHT22;1838;50.742;7.158;2022-12-19T02:06:38;2.40;99.90
3644;DHT22;1838;50.742;7.158;2022-12-19T02:09:04;2.40;99.90
3644;DHT22;1838;50.742;7.158;2022-12-19T02:11:30;2.40;99.90
3644;DHT22;1838;50.742;7.158;2022-12-19T02:13:55;2.30;99.90
3644;DHT22;1838;50.742;7.158;2022-12-19T02:25:00;2.30;99.90
3644;DHT22;1838;50.742;7.158;2022-12-19T02:28:02;2.20;99.90
3644;DHT22;1838;50.742;7.158;2022-12-19T02:33:43;2.30;99.90
3644;DHT22;1838;50.742;7.158;2022-12-19T02:36:20;2.40;99.90
3644;DHT22;1838;50.742;7.158;2022-12-19T02:39:10;2.40;99.90
3644;DHT22;1838;50.742;7.158;2022-12-19T02:41:44;2.30;99.90
3644;DHT22;1838;50.742;7.158;2022-12-19T02:44:17;2.30;99.90
3644;DHT22;1838;50.742;7.158;2022-12-19T02:46:45;2.40;99.90
3644;DHT22;1838;50.742;7.158;2022-12-19T02:49:12;2.40;99.90
3644;DHT22;1838;50.742;7.158;2022-12-19T02:51:39;2.30;99.90
3644;DHT22;1838;50.742;7.158;2022-12-19T02:54:04;2.30;99.90
3644;DHT22;1838;50.742;7.158;2022-12-19T02:56:45;2.30;99.90
3644;DHT22;1838;50.742;7.158;2022-12-19T02:59:20;2.30;99.90
3644;DHT22;1838;50.742;7.158;2022-12-19T03:01:55;2.30;99.90
3644;DHT22;1838;50.742;7.158;2022-12-19T03:07:34;2.30;99.90
3644;DHT22;1838;50.742;7.158;2022-12-19T03:10:07;2.30;99.90
3644;DHT22;1838;50.742;7.158;2022-12-19T03:12:55;2.40;99.90
3644;DHT22;1838;50.742;7.158;2022-12-19T03:15:22;2.50;99.90
3644;DHT22;1838;50.742;7.158;2022-12-19T03:17:48;2.50;99.90
3644;DHT22;1838;50.742;7.158;2022-12-19T03:23:06;2.60;99.90
3644;DHT22;1838;50.742;7.158;2022-12-19T03:25:32;2.60;99.90
3644;DHT22;1838;50.742;7.158;2022-12-19T03:28:01;2.60;99.90
3644;DHT22;1838;50.742;7.158;2022-12-19T03:30:30;2.60;99.90
3644;DHT22;1838;50.742;7.158;2022-12-19T03:32:56;2.60;99.90
3644;DHT22;1838;50.742;7.158;2022-12-19T03:35:25;2.60;99.90
3644;DHT22;1838;50.742;7.158;2022-12-19T03:37:54;2.60;99.90
3644;DHT22;1838;50.742;7.158;2022-12-19T03:40:25;2.70;99.90
3644;DHT22;1838;50.742;7.158;2022-12-19T03:42:54;2.60;99.90
3644;DHT22;1838;50.742;7.158;2022-12-19T03:46:11;2.60;99.90
3644;DHT22;1838;50.742;7.158;2022-12-19T03:48:46;2.60;99.90
3644;DHT22;1838;50.742;7.158;2022-12-19T03:51:38;2.60;99.90
3644;DHT22;1838;50.742;7.158;2022-12-19T03:54:12;2.60;99.90
3644;DHT22;1838;50.742;7.158;2022-12-19T04:01:49;2.70;99.90
3644;DHT22;1838;50.742;7.158;2022-12-19T04:04:17;2.70;99.90
3644;DHT22;1838;50.742;7.158;2022-12-19T04:06:43;2.70;99.90
3644;DHT22;1838;50.742;7.158;2022-12-19T04:09:10;2.80;99.90
3644;DHT22;1838;50.742;7.158;2022-12-19T04:11:39;2.80;99.90
3644;DHT22;1838;50.742;7.158;2022-12-19T04:14:18;2.80;99.90
3644;DHT22;1838;50.742;7.158;2022-12-19T04:17:06;2.80;99.90
3644;DHT22;1838;50.742;7.158;2022-12-19T04:19:59;2.80;99.90
3644;DHT22;1838;50.742;7.158;2022-12-19T04:22:37;2.90;99.90
3644;DHT22;1838;50.742;7.158;2022-12-19T04:25:14;2.80;99.90
3644;DHT22;1838;50.742;7.158;2022-12-19T04:27:45;2.80;99.90
3644;DHT22;1838;50.742;7.158;2022-12-19T04:30:15;2.70;99.90
3644;DHT22;1838;50.742;7.158;2022-12-19T04:32:41;2.80;99.90
3644;DHT22;1838;50.742;7.158;2022-12-19T04:35:07;2.80;99.90
3644;DHT22;1838;50.742;7.158;2022-12-19T04:37:33;2.80;99.90
3644;DHT22;1838;50.742;7.158;2022-12-19T04:39:59;2.80;99.90
3644;DHT22;1838;50.742;7.158;2022-12-19T04:42:25;2.80;99.90
3644;DHT22;1838;50.742;7.158;2022-12-19T04:44:50;2.90;99.90
3644;DHT22;1838;50.742;7.158;2022-12-19T04:47:16;2.90;99.90
3644;DHT22;1838;50.742;7.158;2022-12-19T04:49:41;2.90;99.90
3644;DHT22;1838;50.742;7.158;2022-12-19T04:52:07;2.90;99.90
3644;DHT22;1838;50.742;7.158;2022-12-19T04:54:32;2.90;99.90
3644;DHT22;1838;50.742;7.158;2022-12-19T04:56:58;3.00;99.90
3644;DHT22;1838;50.742;7.158;2022-12-19T04:59:23;3.00;99.90
3644;DHT22;1838;50.742;7.158;2022-12-19T05:01:49;3.10;99.90
3644;DHT22;1838;50.742;7.158;2022-12-19T05:04:14;3.10;99.90
3644;DHT22;1838;50.742;7.158;2022-12-19T05:06:40;3.20;99.90
3644;DHT22;1838;50.742;7.158;2022-12-19T05:09:05;3.10;99.90
3644;DHT22;1838;50.742;7.158;2022-12-19T05:11:31;3.10;99.90
3644;DHT22;1838;50.742;7.158;2022-12-19T05:13:57;3.00;99.90
3644;DHT22;1838;50.742;7.158;2022-12-19T05:16:23;2.90;99.90
3644;DHT22;1838;50.742;7.158;2022-12-19T05:18:49;2.90;99.90
3644;DHT22;1838;50.742;7.158;2022-12-19T05:21:14;2.90;99.90
3644;DHT22;1838;50.742;7.158;2022-12-19T05:23:40;2.90;99.90
3644;DHT22;1838;50.742;7.158;2022-12-19T05:26:06;2.90;99.90
3644;DHT22;1838;50.742;7.158;2022-12-19T05:28:32;2.90;99.90
3644;DHT22;1838;50.742;7.158;2022-12-19T05:31:06;2.90;99.90
3644;DHT22;1838;50.742;7.158;2022-12-19T05:33:33;3.00;99.90
3644;DHT22;1838;50.742;7.158;2022-12-19T05:35:59;3.00;99.90
3644;DHT22;1838;50.742;7.158;2022-12-19T05:38:25;3.10;99.90
3644;DHT22;1838;50.742;7.158;2022-12-19T05:40:51;3.10;99.90
3644;DHT22;1838;50.742;7.158;2022-12-19T05:43:16;3.10;99.90
3644;DHT22;1838;50.742;7.158;2022-12-19T05:45:42;3.10;99.90
3644;DHT22;1838;50.742;7.158;2022-12-19T05:48:07;3.20;99.90
3644;DHT22;1838;50.742;7.158;2022-12-19T05:50:33;3.20;99.90
3644;DHT22;1838;50.742;7.158;2022-12-19T05:52:58;3.20;99.90
3644;DHT22;1838;50.742;7.158;2022-12-19T05:55:24;3.30;99.90
3644;DHT22;1838;50.742;7.158;2022-12-19T05:57:49;3.30;99.90
3644;DHT22;1838;50.742;7.158;2022-12-19T06:00:15;3.30;99.90
3644;DHT22;1838;50.742;7.158;2022-12-19T06:02:41;3.40;99.90
3644;DHT22;1838;50.742;7.158;2022-12-19T06:05:07;3.50;99.90
3644;DHT22;1838;50.742;7.158;2022-12-19T06:07:33;3.50;99.90
3644;DHT22;1838;50.742;7.158;2022-12-19T06:09:59;3.50;99.90
3644;DHT22;1838;50.742;7.158;2022-12-19T06:12:24;3.60;99.90
3644;DHT22;1838;50.742;7.158;2022-12-19T06:14:50;3.50;99.90
3644;DHT22;1838;50.742;7.158;2022-12-19T06:17:15;3.50;99.90
3644;DHT22;1838;50.742;7.158;2022-12-19T06:19:41;3.40;99.90
3644;DHT22;1838;50.742;7.158;2022-12-19T06:22:06;3.30;99.90
3644;DHT22;1838;50.742;7.158;2022-12-19T06:24:32;3.30;99.90
3644;DHT22;1838;50.742;7.158;2022-12-19T06:26:57;3.30;99.90
3644;DHT22;1838;50.742;7.158;2022-12-19T06:29:23;3.20;99.90
3644;DHT22;1838;50.742;7.158;2022-12-19T06:31:48;3.20;99.90
3644;DHT22;1838;50.742;7.158;2022-12-19T06:34:14;3.20;99.90
3644;DHT22;1838;50.742;7.158;2022-12-19T06:36:39;3.20;99.90
3644;DHT22;1838;50.742;7.158;2022-12-19T06:39:05;3.30;99.90
3644;DHT22;1838;50.742;7.158;2022-12-19T06:41:30;3.30;99.90
3644;DHT22;1838;50.742;7.158;2022-12-19T06:44:15;3.30;99.90
3644;DHT22;1838;50.742;7.158;2022-12-19T06:46:42;3.30;99.90
3644;DHT22;1838;50.742;7.158;2022-12-19T06:49:09;3.30;99.90
3644;DHT22;1838;50.742;7.158;2022-12-19T06:51:34;3.30;99.90
3644;DHT22;1838;50.742;7.158;2022-12-19T06:54:00;3.40;99.90
3644;DHT22;1838;50.742;7.158;2022-12-19T06:56:26;3.40;99.90
3644;DHT22;1838;50.742;7.158;2022-12-19T06:58:52;3.40;99.90
3644;DHT22;1838;50.742;7.158;2022-12-19T07:01:19;3.40;99.90
3644;DHT22;1838;50.742;7.158;2022-12-19T07:03:46;3.40;99.90
3644;DHT22;1838;50.742;7.158;2022-12-19T07:06:12;3.40;99.90
3644;DHT22;1838;50.742;7.158;2022-12-19T07:08:38;3.40;99.90
3644;DHT22;1838;50.742;7.158;2022-12-19T07:11:03;3.40;99.90
3644;DHT22;1838;50.742;7.158;2022-12-19T07:13:29;3.40;99.90
3644;DHT22;1838;50.742;7.158;2022-12-19T07:15:57;3.40;99.90
3644;DHT22;1838;50.742;7.158;2022-12-19T07:18:24;3.40;99.90
3644;DHT22;1838;50.742;7.158;2022-12-19T07:20:49;3.40;99.90
3644;DHT22;1838;50.742;7.158;2022-12-19T07:23:18;3.50;99.90
3644;DHT22;1838;50.742;7.158;2022-12-19T07:25:44;3.50;99.90
3644;DHT22;1838;50.742;7.158;2022-12-19T07:28:10;3.50;99.90
3644;DHT22;1838;50.742;7.158;2022-12-19T07:30:36;3.60;99.90
3644;DHT22;1838;50.742;7.158;2022-12-19T07:33:01;3.60;99.90
3644;DHT22;1838;50.742;7.158;2022-12-19T07:35:27;3.70;99.90
3644;DHT22;1838;50.742;7.158;2022-12-19T07:37:52;3.80;99.90
3644;DHT22;1838;50.742;7.158;2022-12-19T07:40:18;3.80;99.90
3644;DHT22;1838;50.742;7.158;2022-12-19T07:42:44;3.90;99.90
3644;DHT22;1838;50.742;7.158;2022-12-19T07:45:10;3.90;99.90
3644;DHT22;1838;50.742;7.158;2022-12-19T07:47:36;3.90;99.90
3644;DHT22;1838;50.742;7.158;2022-12-19T07:50:02;4.00;99.90
3644;DHT22;1838;50.742;7.158;2022-12-19T07:52:28;3.90;99.90
3644;DHT22;1838;50.742;7.158;2022-12-19T07:54:53;3.80;99.90
3644;DHT22;1838;50.742;7.158;2022-12-19T07:57:19;3.80;99.90
3644;DHT22;1838;50.742;7.158;2022-12-19T07:59:44;3.80;99.90
3644;DHT22;1838;50.742;7.158;2022-12-19T08:02:11;3.70;99.90
3644;DHT22;1838;50.742;7.158;2022-12-19T08:04:36;3.70;99.90
3644;DHT22;1838;50.742;7.158;2022-12-19T08:07:02;3.70;99.90
3644;DHT22;1838;50.742;7.158;2022-12-19T08:09:28;3.80;99.90
3644;DHT22;1838;50.742;7.158;2022-12-19T08:11:54;3.80;99.90
3644;DHT22;1838;50.742;7.158;2022-12-19T08:14:19;3.80;99.90
3644;DHT22;1838;50.742;7.158;2022-12-19T08:16:45;3.80;99.90
3644;DHT22;1838;50.742;7.158;2022-12-19T08:19:10;3.80;99.90
3644;DHT22;1838;50.742;7.158;2022-12-19T08:21:36;3.80;99.90
3644;DHT22;1838;50.742;7.158;2022-12-19T08:24:02;3.90;99.90
3644;DHT22;1838;50.742;7.158;2022-12-19T08:26:27;3.90;99.90
3644;DHT22;1838;50.742;7.158;2022-12-19T08:28:54;4.00;99.90
3644;DHT22;1838;50.742;7.158;2022-12-19T08:31:23;4.10;99.90
3644;DHT22;1838;50.742;7.158;2022-12-19T08:33:53;4.10;99.90
3644;DHT22;1838;50.742;7.158;2022-12-19T08:36:20;4.10;99.90
3644;DHT22;1838;50.742;7.158;2022-12-19T08:38:47;4.10;99.90
3644;DHT22;1838;50.742;7.158;2022-12-19T08:41:14;4.10;99.90
3644;DHT22;1838;50.742;7.158;2022-12-19T08:43:40;4.10;99.90
3644;DHT22;1838;50.742;7.158;2022-12-19T08:46:06;4.10;99.90
3644;DHT22;1838;50.742;7.158;2022-12-19T08:48:34;4.10;99.90
3644;DHT22;1838;50.742;7.158;2022-12-19T08:51:02;4.10;99.90
3644;DHT22;1838;50.742;7.158;2022-12-19T08:53:30;4.10;99.90
3644;DHT22;1838;50.742;7.158;2022-12-19T08:56:00;4.00;99.90
3644;DHT22;1838;50.742;7.158;2022-12-19T08:58:27;4.10;99.90
3644;DHT22;1838;50.742;7.158;2022-12-19T09:00:53;4.10;99.90
3644;DHT22;1838;50.742;7.158;2022-12-19T09:03:20;4.10;99.90
3644;DHT22;1838;50.742;7.158;2022-12-19T09:05:56;4.20;99.90
3644;DHT22;1838;50.742;7.158;2022-12-19T09:08:23;4.30;99.90
3644;DHT22;1838;50.742;7.158;2022-12-19T09:10:48;4.30;99.90
3644;DHT22;1838;50.742;7.158;2022-12-19T09:13:14;4.40;99.90
3644;DHT22;1838;50.742;7.158;2022-12-19T09:15:40;4.40;99.90
3644;DHT22;1838;50.742;7.158;2022-12-19T09:18:05;4.50;99.90
3644;DHT22;1838;50.742;7.158;2022-12-19T09:20:31;4.50;99.90
3644;DHT22;1838;50.742;7.158;2022-12-19T09:22:56;4.40;99.90
3644;DHT22;1838;50.742;7.158;2022-12-19T09:25:22;4.30;99.90
3644;DHT22;1838;50.742;7.158;2022-12-19T09:27:47;4.30;99.90
3644;DHT22;1838;50.742;7.158;2022-12-19T09:30:13;4.30;99.90
3644;DHT22;1838;50.742;7.158;2022-12-19T09:32:40;4.30;99.90
3644;DHT22;1838;50.742;7.158;2022-12-19T09:35:06;4.30;99.90
3644;DHT22;1838;50.742;7.158;2022-12-19T09:37:31;4.30;99.90
3644;DHT22;1838;50.742;7.158;2022-12-19T09:39:57;4.40;99.90
3644;DHT22;1838;50.742;7.158;2022-12-19T09:47:41;4.50;99.90
3644;DHT22;1838;50.742;7.158;2022-12-19T09:53:17;4.50;99.90
3644;DHT22;1838;50.742;7.158;2022-12-19T09:55:44;4.40;99.90
3644;DHT22;1838;50.742;7.158;2022-12-19T09:58:30;4.30;99.90
3644;DHT22;1838;50.742;7.158;2022-12-19T10:00:59;4.30;99.90
3644;DHT22;1838;50.742;7.158;2022-12-19T10:03:37;4.20;99.90
3644;DHT22;1838;50.742;7.158;2022-12-19T10:06:05;4.20;99.90
3644;DHT22;1838;50.742;7.158;2022-12-19T10:08:37;4.20;99.90
3644;DHT22;1838;50.742;7.158;2022-12-19T10:11:07;4.20;99.90
3644;DHT22;1838;50.742;7.158;2022-12-19T10:19:28;4.40;99.90
3644;DHT22;1838;50.742;7.158;2022-12-19T10:21:58;4.40;99.90
3644;DHT22;1838;50.742;7.158;2022-12-19T10:27:30;4.50;99.90
3644;DHT22;1838;50.742;7.158;2022-12-19T10:32:40;4.60;99.90
3644;DHT22;1838;50.742;7.158;2022-12-19T10:35:18;4.60;99.90
3644;DHT22;1838;50.742;7.158;2022-12-19T10:37:56;4.70;99.90
3644;DHT22;1838;50.742;7.158;2022-12-19T10:40:32;4.60;99.90
3644;DHT22;1838;50.742;7.158;2022-12-19T10:43:12;4.60;99.90
3644;DHT22;1838;50.742;7.158;2022-12-19T10:45:53;4.70;99.90
3644;DHT22;1838;50.742;7.158;2022-12-19T10:48:21;4.70;99.90
3644;DHT22;1838;50.742;7.158;2022-12-19T10:50:47;4.80;99.90
3644;DHT22;1838;50.742;7.158;2022-12-19T10:53:14;4.80;99.90
3644;DHT22;1838;50.742;7.158;2022-12-19T10:55:47;4.80;99.90
3644;DHT22;1838;50.742;7.158;2022-12-19T11:03:37;4.80;99.90
3644;DHT22;1838;50.742;7.158;2022-12-19T11:06:04;4.80;99.90
3644;DHT22;1838;50.742;7.158;2022-12-19T11:08:33;4.80;99.90
3644;DHT22;1838;50.742;7.158;2022-12-19T11:13:40;4.60;99.90
3644;DHT22;1838;50.742;7.158;2022-12-19T11:16:07;4.50;99.90
3644;DHT22;1838;50.742;7.158;2022-12-19T11:18:35;4.60;99.90
3644;DHT22;1838;50.742;7.158;2022-12-19T11:26:46;4.60;99.90
3644;DHT22;1838;50.742;7.158;2022-12-19T11:29:23;4.70;99.90
3644;DHT22;1838;50.742;7.158;2022-12-19T11:31:58;4.60;99.90
3644;DHT22;1838;50.742;7.158;2022-12-19T11:34:26;4.50;99.90
3644;DHT22;1838;50.742;7.158;2022-12-19T11:37:19;4.60;99.90
3644;DHT22;1838;50.742;7.158;2022-12-19T11:39:54;4.60;99.90
3644;DHT22;1838;50.742;7.158;2022-12-19T11:42:30;4.60;99.90
3644;DHT22;1838;50.742;7.158;2022-12-19T11:50:34;4.70;99.90
3644;DHT22;1838;50.742;7.158;2022-12-19T11:53:19;4.80;99.90
3644;DHT22;1838;50.742;7.158;2022-12-19T11:55:55;4.80;99.90
3644;DHT22;1838;50.742;7.158;2022-12-19T11:58:27;4.90;99.90
3644;DHT22;1838;50.742;7.158;2022-12-19T12:04:00;5.00;99.90
3644;DHT22;1838;50.742;7.158;2022-12-19T12:06:33;5.00;99.90
3644;DHT22;1838;50.742;7.158;2022-12-19T12:09:46;5.10;99.90
3644;DHT22;1838;50.742;7.158;2022-12-19T12:12:04;5.20;99.90
3644;DHT22;1838;50.742;7.158;2022-12-19T12:14:54;5.20;99.90
3644;DHT22;1838;50.742;7.158;2022-12-19T12:20:20;5.30;99.90
3644;DHT22;1838;50.742;7.158;2022-12-19T12:25:46;5.30;99.90
3644;DHT22;1838;50.742;7.158;2022-12-19T12:36:26;5.40;99.90
3644;DHT22;1838;50.742;7.158;2022-12-19T12:39:07;5.40;99.90
3644;DHT22;1838;50.742;7.158;2022-12-19T12:41:53;5.40;99.90
3644;DHT22;1838;50.742;7.158;2022-12-19T12:44:39;5.50;99.90
3644;DHT22;1838;50.742;7.158;2022-12-19T12:47:22;5.50;99.90
3644;DHT22;1838;50.742;7.158;2022-12-19T12:49:58;5.60;99.90
3644;DHT22;1838;50.742;7.158;2022-12-19T12:52:40;5.70;99.90
3644;DHT22;1838;50.742;7.158;2022-12-19T12:55:19;5.80;99.90
3644;DHT22;1838;50.742;7.158;2022-12-19T12:57:45;5.90;99.90
3644;DHT22;1838;50.742;7.158;2022-12-19T13:00:27;6.00;99.90
3644;DHT22;1838;50.742;7.158;2022-12-19T13:08:24;6.20;99.90
3644;DHT22;1838;50.742;7.158;2022-12-19T13:11:00;6.20;99.90
3644;DHT22;1838;50.742;7.158;2022-12-19T13:13:47;6.20;99.90
3644;DHT22;1838;50.742;7.158;2022-12-19T13:19:26;6.30;99.90
3644;DHT22;1838;50.742;7.158;2022-12-19T13:27:36;6.30;99.90
3644;DHT22;1838;50.742;7.158;2022-12-19T13:30:11;6.30;99.90
3644;DHT22;1838;50.742;7.158;2022-12-19T13:37:42;6.30;99.90
3644;DHT22;1838;50.742;7.158;2022-12-19T13:40:27;6.40;99.90
3644;DHT22;1838;50.742;7.158;2022-12-19T13:46:00;6.50;99.90
3644;DHT22;1838;50.742;7.158;2022-12-19T13:48:32;6.50;99.90
3644;DHT22;1838;50.742;7.158;2022-12-19T13:51:03;6.60;99.90
3644;DHT22;1838;50.742;7.158;2022-12-19T13:53:30;6.50;99.90
3644;DHT22;1838;50.742;7.158;2022-12-19T13:56:16;6.50;99.90
3644;DHT22;1838;50.742;7.158;2022-12-19T13:58:57;6.50;99.90
3644;DHT22;1838;50.742;7.158;2022-12-19T14:01:27;6.50;99.90
3644;DHT22;1838;50.742;7.158;2022-12-19T14:03:56;6.50;99.90
3644;DHT22;1838;50.742;7.158;2022-12-19T14:06:27;6.50;99.90
3644;DHT22;1838;50.742;7.158;2022-12-19T14:09:06;6.40;99.90
3644;DHT22;1838;50.742;7.158;2022-12-19T14:11:39;6.40;99.90
3644;DHT22;1838;50.742;7.158;2022-12-19T14:14:13;6.40;99.90
3644;DHT22;1838;50.742;7.158;2022-12-19T14:17:10;6.50;99.90
3644;DHT22;1838;50.742;7.158;2022-12-19T14:19:39;6.50;99.90
3644;DHT22;1838;50.742;7.158;2022-12-19T14:22:10;6.50;99.90
3644;DHT22;1838;50.742;7.158;2022-12-19T14:24:36;6.50;99.90
3644;DHT22;1838;50.742;7.158;2022-12-19T14:27:05;6.50;99.90
3644;DHT22;1838;50.742;7.158;2022-12-19T14:29:52;6.50;99.90
3644;DHT22;1838;50.742;7.158;2022-12-19T14:32:18;6.50;99.90
3644;DHT22;1838;50.742;7.158;2022-12-19T14:34:46;6.50;99.90
3644;DHT22;1838;50.742;7.158;2022-12-19T14:39:57;6.50;99.90
3644;DHT22;1838;50.742;7.158;2022-12-19T14:42:23;6.40;99.90
3644;DHT22;1838;50.742;7.158;2022-12-19T14:45:31;6.40;99.90
3644;DHT22;1838;50.742;7.158;2022-12-19T14:47:57;6.40;99.90
3644;DHT22;1838;50.742;7.158;2022-12-19T14:53:08;6.40;99.90
3644;DHT22;1838;50.742;7.158;2022-12-19T14:55:41;6.40;99.90
3644;DHT22;1838;50.742;7.158;2022-12-19T14:58:16;6.40;99.90
3644;DHT22;1838;50.742;7.158;2022-12-19T15:00:46;6.40;99.90
3644;DHT22;1838;50.742;7.158;2022-12-19T15:03:26;6.40;99.90
3644;DHT22;1838;50.742;7.158;2022-12-19T15:06:06;6.40;99.90
3644;DHT22;1838;50.742;7.158;2022-12-19T15:08:34;6.40;99.90
3644;DHT22;1838;50.742;7.158;2022-12-19T15:11:04;6.40;99.90
3644;DHT22;1838;50.742;7.158;2022-12-19T15:13:57;6.50;99.90
3644;DHT22;1838;50.742;7.158;2022-12-19T15:16:25;6.40;99.90
3644;DHT22;1838;50.742;7.158;2022-12-19T15:19:01;6.50;99.90
3644;DHT22;1838;50.742;7.158;2022-12-19T15:21:29;6.50;99.90
3644;DHT22;1838;50.742;7.158;2022-12-19T15:23:55;6.50;99.90
3644;DHT22;1838;50.742;7.158;2022-12-19T15:26:33;6.60;99.90
3644;DHT22;1838;50.742;7.158;2022-12-19T15:28:59;6.60;99.90
3644;DHT22;1838;50.742;7.158;2022-12-19T15:36:49;6.70;99.90
3644;DHT22;1838;50.742;7.158;2022-12-19T15:39:16;6.70;99.90
3644;DHT22;1838;50.742;7.158;2022-12-19T15:41:43;6.70;99.90
3644;DHT22;1838;50.742;7.158;2022-12-19T15:44:20;6.80;99.90
3644;DHT22;1838;50.742;7.158;2022-12-19T15:46:46;6.80;99.90
3644;DHT22;1838;50.742;7.158;2022-12-19T15:49:17;6.90;99.90
3644;DHT22;1838;50.742;7.158;2022-12-19T15:51:43;6.80;99.90
3644;DHT22;1838;50.742;7.158;2022-12-19T15:54:09;6.90;99.90
3644;DHT22;1838;50.742;7.158;2022-12-19T15:56:37;6.90;99.90
3644;DHT22;1838;50.742;7.158;2022-12-19T15:59:04;6.90;99.90
3644;DHT22;1838;50.742;7.158;2022-12-19T16:01:30;6.90;99.90
3644;DHT22;1838;50.742;7.158;2022-12-19T16:03:58;6.90;99.90
3644;DHT22;1838;50.742;7.158;2022-12-19T16:06:25;7.00;99.90
3644;DHT22;1838;50.742;7.158;2022-12-19T16:08:51;7.00;99.90
3644;DHT22;1838;50.742;7.158;2022-12-19T16:11:22;7.10;99.90
3644;DHT22;1838;50.742;7.158;2022-12-19T16:13:56;7.10;99.90
3644;DHT22;1838;50.742;7.158;2022-12-19T16:16:22;7.10;99.90
3644;DHT22;1838;50.742;7.158;2022-12-19T16:18:48;7.10;99.90
3644;DHT22;1838;50.742;7.158;2022-12-19T16:21:22;7.10;99.90
3644;DHT22;1838;50.742;7.158;2022-12-19T16:23:49;7.10;99.90
3644;DHT22;1838;50.742;7.158;2022-12-19T16:26:26;7.10;99.90
3644;DHT22;1838;50.742;7.158;2022-12-19T16:28:53;7.10;99.90
3644;DHT22;1838;50.742;7.158;2022-12-19T16:31:22;7.10;99.90
3644;DHT22;1838;50.742;7.158;2022-12-19T16:33:48;7.10;99.90
3644;DHT22;1838;50.742;7.158;2022-12-19T16:36:13;7.10;99.90
3644;DHT22;1838;50.742;7.158;2022-12-19T16:38:39;7.20;99.90
3644;DHT22;1838;50.742;7.158;2022-12-19T16:41:04;7.20;99.90
3644;DHT22;1838;50.742;7.158;2022-12-19T16:43:39;7.20;99.90
3644;DHT22;1838;50.742;7.158;2022-12-19T16:46:06;7.20;99.90
3644;DHT22;1838;50.742;7.158;2022-12-19T16:48:33;7.20;99.90
3644;DHT22;1838;50.742;7.158;2022-12-19T16:51:00;7.30;99.90
3644;DHT22;1838;50.742;7.158;2022-12-19T16:53:26;7.30;99.90
3644;DHT22;1838;50.742;7.158;2022-12-19T16:55:53;7.30;99.90
3644;DHT22;1838;50.742;7.158;2022-12-19T16:58:24;7.40;99.90
3644;DHT22;1838;50.742;7.158;2022-12-19T17:00:52;7.40;99.90
3644;DHT22;1838;50.742;7.158;2022-12-19T17:03:32;7.40;99.90
3644;DHT22;1838;50.742;7.158;2022-12-19T17:05:59;7.40;99.90
3644;DHT22;1838;50.742;7.158;2022-12-19T17:08:25;7.50;99.90
3644;DHT22;1838;50.742;7.158;2022-12-19T17:10:51;7.40;99.90
3644;DHT22;1838;50.742;7.158;2022-12-19T17:13:17;7.40;99.90
3644;DHT22;1838;50.742;7.158;2022-12-19T17:15:43;7.50;99.90
3644;DHT22;1838;50.742;7.158;2022-12-19T17:18:33;7.50;99.90
3644;DHT22;1838;50.742;7.158;2022-12-19T17:20:57;7.50;99.90
3644;DHT22;1838;50.742;7.158;2022-12-19T17:23:24;7.50;99.90
3644;DHT22;1838;50.742;7.158;2022-12-19T17:25:51;7.60;99.90
3644;DHT22;1838;50.742;7.158;2022-12-19T17:28:18;7.60;99.90
3644;DHT22;1838;50.742;7.158;2022-12-19T17:30:48;7.60;99.90
3644;DHT22;1838;50.742;7.158;2022-12-19T17:33:16;7.60;99.90
3644;DHT22;1838;50.742;7.158;2022-12-19T17:35:43;7.60;99.90
3644;DHT22;1838;50.742;7.158;2022-12-19T17:38:12;7.70;99.90
3644;DHT22;1838;50.742;7.158;2022-12-19T17:40:38;7.70;99.90
3644;DHT22;1838;50.742;7.158;2022-12-19T17:43:05;7.70;99.90
3644;DHT22;1838;50.742;7.158;2022-12-19T17:45:32;7.80;99.90
3644;DHT22;1838;50.742;7.158;2022-12-19T17:48:01;7.80;99.90
3644;DHT22;1838;50.742;7.158;2022-12-19T17:50:34;7.80;99.90
3644;DHT22;1838;50.742;7.158;2022-12-19T17:53:01;7.90;99.90
3644;DHT22;1838;50.742;7.158;2022-12-19T17:55:28;7.90;99.90
3644;DHT22;1838;50.742;7.158;2022-12-19T17:57:54;7.90;99.90
3644;DHT22;1838;50.742;7.158;2022-12-19T18:00:26;7.90;99.90
3644;DHT22;1838;50.742;7.158;2022-12-19T18:02:54;7.90;99.90
3644;DHT22;1838;50.742;7.158;2022-12-19T18:05:23;8.00;99.90
3644;DHT22;1838;50.742;7.158;2022-12-19T18:07:51;8.00;99.90
3644;DHT22;1838;50.742;7.158;2022-12-19T18:10:22;8.10;99.90
3644;DHT22;1838;50.742;7.158;2022-12-19T18:12:49;8.20;99.90
3644;DHT22;1838;50.742;7.158;2022-12-19T18:15:15;8.30;99.90
3644;DHT22;1838;50.742;7.158;2022-12-19T18:17:41;8.40;99.90
3644;DHT22;1838;50.742;7.158;2022-12-19T18:20:24;8.50;99.90
3644;DHT22;1838;50.742;7.158;2022-12-19T18:22:51;8.60;99.90
3644;DHT22;1838;50.742;7.158;2022-12-19T18:25:24;8.80;99.90
3644;DHT22;1838;50.742;7.158;2022-12-19T18:27:51;8.90;99.90
3644;DHT22;1838;50.742;7.158;2022-12-19T18:30:18;9.00;99.90